USSSUSTR

Guest
Details From USSS - KOLTSOVO
To USTR - Roschino
Flight Number -
Tags generated
Created
Modified
Stats Distance 150 nm / 278 km
Max Altitude 15,800 ft / 4,816 m
Waypoints 3
Social Downloads 13
Likes 0
Share VATSIM

Download

Looking for another format? Having issues loading an existing format? Contact us
Advertisement - Login to hide

Notes

Basic altitude profile: - Ascent Rate: 2500ft/min - Ascent Speed: 250kts - Cruise Altitude: 35000ft - Cruise Speed: 420kts - Descent Rate: 1500ft/min - Descent Speed: 250kts Options: - Use NATs: yes - Use PACOTS: yes - Use low airways: yes - Use high airways: yes

Route

USSS BAMAN A303 USTR

ID Type Via Altitude Latitude Longitude Leg Dist Tot Dist Heading (true) Name
O USSS APT - 0 ft / 0 m 56.74311˚ 60.80273˚ - 0 nm - KOLTSOVO
BAMAN FIX - 11,200 ft / 3,414 m 57.10000˚ 63.71667˚ 97 nm 97 nm 76° / 79° -
O USTR APT A303 (AWY-LO) 15,800 ft / 4,816 m 57.18042˚ 65.31468˚ 52 nm 150 nm 84° / 85° Roschino

Altitude Profile

Advertisement - Login to hide

USSS

Details ICAO USSS (SVX)
Name KOLTSOVO
Region Russia
Timezone Asia/Yekaterinburg (UTC+5.0)
Stats Elevation 764 ft / 233 m (AMSL)
Location 56.743108° 60.802727°
Runways 2
Magnetic Variation 14.864° E

METAR

USSS 180130Z 27001MPS 2900 BR NSC M23/M26 Q1036 R26R/290039 NOSIG RMK QFE756/1008

Decode

TAF

TAF USSS 172254Z 1800/1824 20003MPS 2100 BR SCT007 TEMPO 1800/1806 0300 FG VV002 BECMG 1806/1808 5000 BR SCT015

Decode

Departure Runways

ID Width Length Bearing (true) Bearing (mag) Surface Threshold Offset Overrun Length
08L 148 ft / 45 m 8,172 ft / 2,491 m 90.13° 75.27° Asphalt 0 ft / 0 m 230 ft / 70 m
08R 174 ft / 53 m 9,861 ft / 3,006 m 94.09° 79.23° Concrete 246 ft / 75 m 165 ft / 50 m
26L 174 ft / 53 m 9,861 ft / 3,006 m 274.14° 259.28° Concrete 1,066 ft / 325 m 165 ft / 50 m
26R 148 ft / 45 m 8,172 ft / 2,491 m 270.17° 255.31° Asphalt 0 ft / 0 m 220 ft / 67 m

USTR

Details ICAO USTR (TJM)
Name Roschino
Region Russia
Timezone Asia/Yekaterinburg (UTC+5.0)
Stats Elevation 377 ft / 115 m (AMSL)
Location 57.180416° 65.314677°
Runways 3
Magnetic Variation 14.975° E

METAR

USTR 180130Z 21005MPS CAVOK M13/M21 Q1038 R21/CLRD65 NOSIG RMK QFE768/1025

Decode

TAF

TAF USTR 172256Z 1800/1824 21004MPS 9999 SCT020= TAF USHH 172259Z 1800/1824 19007G15MPS 9999 DRSN BKN020 TEMPO 1800/1805 SCT007 BKN015

Decode

Destination Runways

ID Width Length Bearing (true) Bearing (mag) Surface Threshold Offset Overrun Length
03 148 ft / 45 m 9,827 ft / 2,995 m 47.68° 32.71° Asphalt 0 ft / 0 m 0 ft / 0 m
03L 328 ft / 100 m 6,705 ft / 2,044 m 47.58° 32.61° Grass 0 ft / 0 m 0 ft / 0 m
12 164 ft / 50 m 8,820 ft / 2,688 m 134.79° 119.82° Asphalt 0 ft / 0 m 0 ft / 0 m
21 148 ft / 45 m 9,827 ft / 2,995 m 227.71° 212.74° Asphalt 0 ft / 0 m 0 ft / 0 m
21R 328 ft / 100 m 6,705 ft / 2,044 m 227.60° 212.63° Grass 0 ft / 0 m 0 ft / 0 m
30 164 ft / 50 m 8,820 ft / 2,688 m 314.81° 299.84° Asphalt 0 ft / 0 m 0 ft / 0 m

Approach Navaids

Runway Type Ident Frequency Range Bearing (true) Bearing (mag) Slope Elevation
03 Localiser IRN 108.30 MHz 27 nm / 50 km 47.98° 33.01° - 377 ft / 115 m (AMSL)
03 Glidescope IRN 108.30 MHz 27 nm / 50 km 34.00° 19.03° 2.70° 377 ft / 115 m (AMSL)
03 DME IRN 108.30 MHz 27 nm / 50 km - - - 377 ft / 115 m (AMSL)
21 Localiser IQF 110.70 MHz 27 nm / 50 km 227.99° 213.02° - 377 ft / 115 m (AMSL)
21 Glidescope IQF 110.70 MHz 27 nm / 50 km 228.00° 213.03° 2.70° 377 ft / 115 m (AMSL)
21 DME IQF 110.70 MHz 27 nm / 50 km - - - 377 ft / 115 m (AMSL)

Popular Alternatives